createdAt,value
2017-12-01T00:01:11.382Z,100911.36
2017-12-01T00:03:40.069Z,100910.05
2017-12-01T00:06:09.357Z,100907.80
2017-12-01T00:08:36.780Z,100910.02
2017-12-01T00:11:03.633Z,100920.48
2017-12-01T00:13:29.867Z,100918.73
2017-12-01T00:15:56.081Z,100918.60
2017-12-01T00:18:23.622Z,100912.98
2017-12-01T00:20:49.882Z,100916.59
2017-12-01T00:23:16.139Z,100922.75
2017-12-01T00:25:42.482Z,100929.68
2017-12-01T00:28:09.849Z,100927.86
2017-12-01T00:30:36.204Z,100929.64
2017-12-01T00:33:02.832Z,100937.73
2017-12-01T00:35:29.103Z,100936.20
2017-12-01T00:37:55.464Z,100941.86
2017-12-01T00:40:21.708Z,100941.80
2017-12-01T00:42:47.977Z,100947.52
2017-12-01T00:45:16.210Z,100949.23
2017-12-01T00:47:42.577Z,100947.92
2017-12-01T00:50:10.255Z,100952.58
2017-12-01T00:52:37.636Z,100955.47
2017-12-01T00:55:05.184Z,100962.10
2017-12-01T00:57:33.403Z,100962.51
2017-12-01T00:59:59.927Z,100965.54
2017-12-01T01:02:27.116Z,100971.92
2017-12-01T01:04:55.273Z,100969.64
2017-12-01T01:07:21.574Z,100973.45
2017-12-01T01:09:47.860Z,100971.33
2017-12-01T01:12:14.098Z,100977.11
2017-12-01T01:14:40.314Z,100976.14
2017-12-01T01:17:06.728Z,100974.33
2017-12-01T01:19:32.943Z,100970.66
2017-12-01T01:21:59.136Z,100985.13
2017-12-01T01:24:25.384Z,100982.20
2017-12-01T01:26:51.573Z,100982.70
2017-12-01T01:29:17.731Z,100983.17
2017-12-01T01:31:44.043Z,100984.48
2017-12-01T01:34:10.211Z,100988.96
2017-12-01T01:36:36.405Z,100985.48
2017-12-01T01:39:02.866Z,100988.15
2017-12-01T01:41:29.314Z,100995.15
2017-12-01T01:43:55.535Z,100998.69
2017-12-01T01:46:21.945Z,101000.50
2017-12-01T01:48:48.176Z,101005.38
2017-12-01T01:51:14.361Z,101008.00
2017-12-01T01:53:40.618Z,101013.66
2017-12-01T01:56:06.961Z,101018.09
2017-12-01T01:58:33.179Z,101021.19
2017-12-01T02:00:59.794Z,101025.97
2017-12-01T02:03:25.972Z,101025.12
2017-12-01T02:05:52.401Z,101023.84
2017-12-01T02:08:18.902Z,101027.31
2017-12-01T02:10:51.108Z,101033.50
2017-12-01T02:13:17.345Z,101033.03
2017-12-01T02:15:43.536Z,101035.16
2017-12-01T02:18:09.748Z,101035.12
2017-12-01T02:20:36.145Z,101045.22
2017-12-01T02:23:02.392Z,101046.06
2017-12-01T02:25:28.634Z,101046.47
2017-12-01T02:27:55.145Z,101047.41
2017-12-01T02:30:21.346Z,101055.34
2017-12-01T02:32:47.554Z,101058.91
2017-12-01T02:35:13.819Z,101058.44
2017-12-01T02:37:40.067Z,101070.75
2017-12-01T02:40:06.264Z,101071.56
2017-12-01T02:42:32.542Z,101071.48
2017-12-01T02:44:58.846Z,101072.29
2017-12-01T02:47:25.048Z,101066.66
2017-12-01T02:49:51.317Z,101078.06
2017-12-01T02:52:17.656Z,101076.31
2017-12-01T02:54:49.010Z,101076.34
2017-12-01T02:57:15.203Z,101080.26
2017-12-01T02:59:41.571Z,101084.63
2017-12-01T03:02:08.068Z,101085.91
2017-12-01T03:04:34.288Z,101088.92
2017-12-01T03:07:00.661Z,101097.64
2017-12-01T03:09:27.096Z,101096.80
2017-12-01T03:11:53.309Z,101099.39
2017-12-01T03:14:22.301Z,101104.23
2017-12-01T03:16:48.564Z,101108.61
2017-12-01T03:19:14.782Z,101109.05
2017-12-01T03:21:41.112Z,101110.72
2017-12-01T03:24:07.401Z,101107.63
2017-12-01T03:26:33.695Z,101120.78
2017-12-01T03:28:59.974Z,101121.27
2017-12-01T03:31:26.187Z,101119.98
2017-12-01T03:33:52.413Z,101130.00
2017-12-01T03:36:18.757Z,101140.50
2017-12-01T03:38:45.222Z,101138.34
2017-12-01T03:41:11.417Z,101140.06
2017-12-01T03:43:37.681Z,101146.27
2017-12-01T03:46:03.994Z,101150.19
2017-12-01T03:48:30.431Z,101153.77
2017-12-01T03:50:56.683Z,101156.42
2017-12-01T03:53:22.905Z,101149.77
2017-12-01T03:55:49.119Z,101158.96
2017-12-01T03:58:15.364Z,101163.83
2017-12-01T04:00:41.559Z,101165.23
2017-12-01T04:03:07.813Z,101172.61
2017-12-01T04:05:34.077Z,101174.83
2017-12-01T04:08:00.302Z,101177.89
2017-12-01T04:10:26.496Z,101186.17
2017-12-01T04:12:52.862Z,101182.64
2017-12-01T04:15:19.065Z,101188.80
2017-12-01T04:17:45.267Z,101188.80
2017-12-01T04:20:11.768Z,101186.64
2017-12-01T04:22:37.991Z,101195.39
2017-12-01T04:25:04.201Z,101191.42
2017-12-01T04:27:30.526Z,101193.17
2017-12-01T04:29:56.737Z,101193.58
2017-12-01T04:32:22.945Z,101203.67
2017-12-01T04:34:49.195Z,101201.55
2017-12-01T04:37:15.391Z,101205.46
2017-12-01T04:39:41.591Z,101209.80
2017-12-01T04:42:07.840Z,101212.48
2017-12-01T04:44:34.301Z,101215.11
2017-12-01T04:47:00.520Z,101221.61
2017-12-01T04:49:26.795Z,101220.36
2017-12-01T04:51:53.244Z,101229.14
2017-12-01T04:54:19.439Z,101229.52
2017-12-01T04:56:45.945Z,101230.04
2017-12-01T04:59:12.165Z,101233.52
2017-12-01T05:01:38.610Z,101227.88
2017-12-01T05:04:10.796Z,101224.84
2017-12-01T05:06:37.244Z,101230.55
2017-12-01T05:11:35.551Z,101228.75
2017-12-01T05:14:01.752Z,101229.55
2017-12-01T05:16:27.942Z,101232.59
2017-12-01T05:18:54.269Z,101241.70
2017-12-01T05:21:20.496Z,101240.38
2017-12-01T05:23:46.704Z,101246.42
2017-12-01T05:26:13.065Z,101252.12
2017-12-01T05:28:39.264Z,101252.12
2017-12-01T05:31:05.491Z,101245.58
2017-12-01T05:33:31.855Z,101250.02
2017-12-01T05:35:58.052Z,101245.69
2017-12-01T05:38:24.504Z,101250.55
2017-12-01T05:40:50.771Z,101258.97
2017-12-01T05:43:16.980Z,101256.31
2017-12-01T05:45:43.219Z,101261.56
2017-12-01T05:48:09.461Z,101264.16
2017-12-01T05:50:35.908Z,101263.77
2017-12-01T05:53:02.126Z,101261.56
2017-12-01T05:55:28.481Z,101262.00
2017-12-01T05:57:54.946Z,101263.31
2017-12-01T06:00:21.190Z,101262.02
2017-12-01T06:02:47.966Z,101265.58
2017-12-01T06:05:17.324Z,101266.45
2017-12-01T06:07:45.254Z,101269.08
2017-12-01T06:10:13.759Z,101270.87
2017-12-01T06:12:40.102Z,101274.39
2017-12-01T06:15:06.540Z,101277.94
2017-12-01T06:17:32.898Z,101269.19
2017-12-01T06:19:59.105Z,101274.45
2017-12-01T06:22:25.334Z,101283.70
2017-12-01T06:24:51.689Z,101283.77
2017-12-01T06:27:17.912Z,101284.20
2017-12-01T06:29:44.104Z,101279.01
2017-12-01T06:32:10.514Z,101285.13
2017-12-01T06:34:36.735Z,101292.15
2017-12-01T06:37:03.091Z,101295.23
2017-12-01T06:39:29.423Z,101299.65
2017-12-01T06:41:55.940Z,101305.36
2017-12-01T06:44:22.184Z,101311.47
2017-12-01T06:46:48.651Z,101311.91
2017-12-01T06:49:15.079Z,101317.16
2017-12-01T06:51:41.300Z,101322.31
2017-12-01T06:54:07.582Z,101323.98
2017-12-01T06:56:33.889Z,101328.41
2017-12-01T06:59:00.380Z,101330.16
2017-12-01T07:03:59.573Z,101344.84
2017-12-01T07:06:26.054Z,101344.36
2017-12-01T07:08:52.248Z,101353.53
2017-12-01T07:11:18.423Z,101357.88
2017-12-01T07:13:44.672Z,101357.91
2017-12-01T07:16:10.865Z,101361.39
2017-12-01T07:18:37.301Z,101368.39
2017-12-01T07:21:03.634Z,101375.01
2017-12-01T07:23:29.843Z,101374.23
2017-12-01T07:25:56.108Z,101382.92
2017-12-01T07:28:22.666Z,101393.52
2017-12-01T07:30:48.873Z,101399.63
2017-12-01T07:33:15.105Z,101414.55
2017-12-01T07:35:41.438Z,101418.02
2017-12-01T07:38:07.675Z,101425.45
2017-12-01T07:40:34.254Z,101422.84
2017-12-01T07:43:00.527Z,101435.55
2017-12-01T07:45:28.680Z,101433.31
2017-12-01T07:47:54.924Z,101438.61
2017-12-01T07:50:21.532Z,101447.83
2017-12-01T07:52:47.890Z,101448.63
2017-12-01T07:55:14.198Z,101454.84
2017-12-01T07:57:40.496Z,101464.90
2017-12-01T08:00:06.733Z,101471.86
2017-12-01T08:02:33.081Z,101479.77
2017-12-01T08:04:59.440Z,101478.46
2017-12-01T08:07:25.904Z,101483.25
2017-12-01T08:09:52.137Z,101489.77
2017-12-01T08:12:18.426Z,101491.97
2017-12-01T08:14:44.753Z,101490.67
2017-12-01T08:17:23.471Z,101485.89
2017-12-01T08:19:49.712Z,101492.48
2017-12-01T08:22:28.504Z,101492.09
2017-12-01T08:25:07.376Z,101495.11
2017-12-01T08:27:33.639Z,101489.41
2017-12-01T08:29:59.916Z,101496.41
2017-12-01T08:32:26.397Z,101498.14
2017-12-01T08:34:52.951Z,101504.69
2017-12-01T08:37:19.167Z,101509.12
2017-12-01T08:39:45.447Z,101512.55
2017-12-01T08:42:11.954Z,101521.73
2017-12-01T08:44:38.141Z,101520.41
2017-12-01T08:47:04.386Z,101523.94
2017-12-01T08:49:30.725Z,101536.58
2017-12-01T08:51:57.168Z,101531.35
2017-12-01T08:54:23.380Z,101531.30
2017-12-01T08:56:49.607Z,101530.44
2017-12-01T08:59:15.837Z,101533.97
2017-12-01T09:01:42.086Z,101534.45
2017-12-01T09:04:08.319Z,101535.33
2017-12-01T09:06:34.516Z,101542.70
2017-12-01T09:09:00.967Z,101540.02
2017-12-01T09:11:27.216Z,101539.56
2017-12-01T09:13:53.452Z,101541.33
2017-12-01T09:16:19.892Z,101543.99
2017-12-01T09:18:46.143Z,101544.83
2017-12-01T09:21:12.551Z,101550.55
2017-12-01T09:23:39.150Z,101551.03
2017-12-01T09:26:05.647Z,101554.06
2017-12-01T09:28:32.118Z,101557.92
2017-12-01T09:30:58.300Z,101567.56
2017-12-01T09:33:24.579Z,101570.19
2017-12-01T09:35:50.752Z,101573.23
2017-12-01T09:38:16.932Z,101572.86
2017-12-01T09:40:43.421Z,101574.19
2017-12-01T09:43:09.641Z,101571.53
2017-12-01T09:45:36.184Z,101572.84
2017-12-01T09:48:02.432Z,101583.25
2017-12-01T09:50:28.613Z,101580.64
2017-12-01T09:52:54.872Z,101584.12
2017-12-01T09:55:22.560Z,101585.03
2017-12-01T09:57:48.855Z,101586.33
2017-12-01T10:00:15.066Z,101595.05
2017-12-01T10:02:41.321Z,101600.77
2017-12-01T10:05:07.509Z,101602.05
2017-12-01T10:07:33.945Z,101598.58
2017-12-01T10:10:00.261Z,101600.28
2017-12-01T10:12:26.449Z,101604.67
2017-12-01T10:14:53.436Z,101604.22
2017-12-01T10:17:19.784Z,101606.44
2017-12-01T10:19:45.977Z,101608.17
2017-12-01T10:22:12.205Z,101605.13
2017-12-01T10:24:38.568Z,101609.07
2017-12-01T10:27:04.764Z,101614.30
2017-12-01T10:29:30.944Z,101615.63
2017-12-01T10:31:57.183Z,101612.97
2017-12-01T10:34:23.377Z,101616.83
2017-12-01T10:36:49.556Z,101619.91
2017-12-01T10:39:15.808Z,101615.50
2017-12-01T10:41:42.000Z,101615.11
2017-12-01T10:44:08.221Z,101619.89
2017-12-01T10:46:34.504Z,101612.81
2017-12-01T10:49:00.927Z,101618.87
2017-12-01T10:51:27.116Z,101622.77
2017-12-01T10:53:53.443Z,101628.97
2017-12-01T10:56:19.647Z,101632.53
2017-12-01T10:58:45.840Z,101636.87
2017-12-01T11:01:12.166Z,101630.80
2017-12-01T11:03:38.509Z,101636.51
2017-12-01T11:06:04.688Z,101639.16
2017-12-01T11:08:30.987Z,101634.34
2017-12-01T11:10:57.167Z,101632.12
2017-12-01T11:13:23.336Z,101638.69
2017-12-01T11:15:49.950Z,101633.47
2017-12-01T11:18:16.254Z,101637.37
2017-12-01T11:20:42.456Z,101634.72
2017-12-01T11:23:08.743Z,101632.54
2017-12-01T11:25:35.093Z,101631.19
2017-12-01T11:28:01.292Z,101639.06
2017-12-01T11:30:27.556Z,101636.84
2017-12-01T11:32:53.743Z,101646.84
2017-12-01T11:35:20.188Z,101641.62
2017-12-01T11:37:46.503Z,101642.09
2017-12-01T11:40:12.973Z,101642.98
2017-12-01T11:42:39.126Z,101648.26
2017-12-01T11:45:05.398Z,101652.59
2017-12-01T11:47:31.669Z,101653.48
2017-12-01T11:49:57.860Z,101653.45
2017-12-01T11:52:24.108Z,101649.41
2017-12-01T11:54:50.301Z,101650.78
2017-12-01T11:57:16.504Z,101664.42
2017-12-01T11:59:43.071Z,101663.15
2017-12-01T12:02:09.247Z,101665.79
2017-12-01T12:04:35.466Z,101664.92
2017-12-01T12:07:01.782Z,101664.50
2017-12-01T12:09:27.993Z,101670.16
2017-12-01T12:11:54.426Z,101672.36
2017-12-01T12:14:20.673Z,101674.16
2017-12-01T12:16:47.106Z,101666.31
2017-12-01T12:19:13.294Z,101679.41
2017-12-01T12:21:39.614Z,101672.08
2017-12-01T12:24:05.831Z,101680.79
2017-12-01T12:26:32.058Z,101687.76
2017-12-01T12:28:58.540Z,101693.03
2017-12-01T12:31:24.783Z,101690.45
2017-12-01T12:33:51.018Z,101691.30
2017-12-01T12:36:17.339Z,101683.03
2017-12-01T12:38:43.545Z,101686.91
2017-12-01T12:41:10.078Z,101688.23
2017-12-01T12:43:36.414Z,101692.16
2017-12-01T12:46:02.823Z,101692.58
2017-12-01T12:48:29.252Z,101697.87
2017-12-01T12:50:55.834Z,101691.77
2017-12-01T12:53:22.075Z,101694.77
2017-12-01T12:55:48.256Z,101696.11
2017-12-01T12:58:14.552Z,101692.62
2017-12-01T13:00:40.911Z,101694.34
2017-12-01T13:03:07.156Z,101687.80
2017-12-01T13:05:33.495Z,101699.02
2017-12-01T13:07:59.717Z,101704.30
2017-12-01T13:10:25.955Z,101710.02
2017-12-01T13:12:52.258Z,101710.88
2017-12-01T13:15:18.524Z,101717.91
2017-12-01T13:17:44.788Z,101715.75
2017-12-01T13:20:11.171Z,101716.62
2017-12-01T13:22:37.396Z,101717.52
2017-12-01T13:25:03.616Z,101721.85
2017-12-01T13:27:29.865Z,101728.41
2017-12-01T13:29:56.064Z,101728.01
2017-12-01T13:32:22.352Z,101729.34
2017-12-01T13:34:48.723Z,101733.69
2017-12-01T13:37:14.961Z,101733.69
2017-12-01T13:39:41.150Z,101737.20
2017-12-01T13:42:07.499Z,101741.13
2017-12-01T13:44:33.681Z,101739.84
2017-12-01T13:47:00.242Z,101737.61
2017-12-01T13:49:32.661Z,101738.05
2017-12-01T13:51:58.853Z,101738.52
2017-12-01T13:54:25.036Z,101732.41
2017-12-01T13:56:51.363Z,101737.66
2017-12-01T13:59:17.577Z,101741.15
2017-12-01T14:01:43.756Z,101748.13
2017-12-01T14:04:10.014Z,101758.20
2017-12-01T14:06:36.435Z,101766.95
2017-12-01T14:09:02.728Z,101768.27
2017-12-01T14:11:28.969Z,101769.56
2017-12-01T14:13:55.220Z,101767.38
2017-12-01T14:16:21.480Z,101766.10
2017-12-01T14:18:47.736Z,101772.64
2017-12-01T14:21:13.935Z,101770.91
2017-12-01T14:23:40.134Z,101776.13
2017-12-01T14:26:06.543Z,101774.38
2017-12-01T14:28:32.725Z,101788.35
2017-12-01T14:30:58.918Z,101786.25
2017-12-01T14:33:25.182Z,101791.05
2017-12-01T14:35:51.409Z,101799.80
2017-12-01T14:38:17.596Z,101805.05
2017-12-01T14:40:43.846Z,101807.65
2017-12-01T14:43:10.101Z,101810.76
2017-12-01T14:45:36.279Z,101811.61
2017-12-01T14:48:02.772Z,101813.39
2017-12-01T14:50:28.945Z,101815.15
2017-12-01T14:52:55.135Z,101816.02
2017-12-01T14:55:21.381Z,101817.77
2017-12-01T14:57:47.873Z,101820.80
2017-12-01T15:00:14.094Z,101825.22
2017-12-01T15:02:40.442Z,101826.08
2017-12-01T15:05:06.627Z,101829.16
2017-12-01T15:07:32.832Z,101839.20
2017-12-01T15:09:59.155Z,101841.37
2017-12-01T15:12:25.341Z,101841.86
2017-12-01T15:14:51.528Z,101851.45
2017-12-01T15:17:18.007Z,101852.28
2017-12-01T15:19:44.193Z,101854.91
2017-12-01T15:22:11.308Z,101857.52
2017-12-01T15:24:37.560Z,101858.81
2017-12-01T15:27:03.753Z,101863.17
2017-12-01T15:29:29.937Z,101872.83
2017-12-01T15:31:56.404Z,101865.86
2017-12-01T15:34:23.240Z,101875.03
2017-12-01T15:36:49.413Z,101880.72
2017-12-01T15:39:15.665Z,101882.91
2017-12-01T15:41:41.923Z,101881.64
2017-12-01T15:44:08.122Z,101884.26
2017-12-01T15:46:34.450Z,101891.25
2017-12-01T15:49:00.631Z,101894.37
2017-12-01T15:51:26.821Z,101897.82
2017-12-01T15:53:53.167Z,101900.03
2017-12-01T15:56:19.391Z,101900.02
2017-12-01T15:58:45.567Z,101900.45
2017-12-01T16:01:11.813Z,101900.44
2017-12-01T16:03:38.813Z,101902.23
2017-12-01T16:06:05.049Z,101902.66
2017-12-01T16:08:31.290Z,101906.14
2017-12-01T16:10:57.635Z,101910.52
2017-12-01T16:13:24.062Z,101921.45
2017-12-01T16:15:50.515Z,101923.66
2017-12-01T16:18:16.869Z,101919.73
2017-12-01T16:20:43.088Z,101924.56
2017-12-01T16:23:09.360Z,101926.29
2017-12-01T16:25:35.617Z,101921.92
2017-12-01T16:28:01.820Z,101930.67
2017-12-01T16:30:28.056Z,101931.55
2017-12-01T16:33:00.226Z,101928.47
2017-12-01T16:35:20.560Z,101931.98
2017-12-01T16:37:46.838Z,101930.23
2017-12-01T16:40:13.393Z,101935.48
2017-12-01T16:42:39.579Z,101934.59
2017-12-01T16:45:05.764Z,101934.14
2017-12-01T16:47:32.010Z,101935.88
2017-12-01T16:49:58.208Z,101941.14
2017-12-01T16:52:24.400Z,101942.88
2017-12-01T16:54:50.961Z,101949.46
2017-12-01T16:57:17.164Z,101946.36
2017-12-01T16:59:43.361Z,101948.97
2017-12-01T17:02:09.601Z,101953.36
2017-12-01T17:04:35.952Z,101956.84
2017-12-01T17:07:02.231Z,101957.30
2017-12-01T17:09:28.459Z,101962.09
2017-12-01T17:11:56.020Z,101964.30
2017-12-01T17:14:22.223Z,101959.48
2017-12-01T17:16:48.437Z,101963.88
2017-12-01T17:19:14.774Z,101965.17
2017-12-01T17:21:40.985Z,101972.60
2017-12-01T17:24:07.165Z,101982.27
2017-12-01T17:26:33.501Z,101996.67
2017-12-01T17:28:59.951Z,101994.92
2017-12-01T17:31:26.141Z,101994.05
2017-12-01T17:33:52.642Z,101994.05
2017-12-01T17:36:18.889Z,101996.70
2017-12-01T17:38:45.091Z,101992.73
2017-12-01T17:41:11.437Z,102000.63
2017-12-01T17:43:37.635Z,102001.06
2017-12-01T17:46:04.083Z,102004.16
2017-12-01T17:48:30.356Z,102005.91
2017-12-01T17:50:56.569Z,102012.03
2017-12-01T17:53:22.770Z,102010.30
2017-12-01T17:55:49.017Z,102015.95
2017-12-01T17:58:15.301Z,102022.08
2017-12-01T18:00:41.522Z,102018.13
2017-12-01T18:03:07.776Z,102022.53
2017-12-01T18:05:33.967Z,102025.56
2017-12-01T18:08:00.164Z,102039.16
2017-12-01T18:10:26.406Z,102043.54
2017-12-01T18:12:52.606Z,102043.98
2017-12-01T18:15:18.787Z,102043.98
2017-12-01T18:17:45.101Z,102048.80
2017-12-01T18:20:11.301Z,102040.45
2017-12-01T18:22:37.709Z,102043.96
2017-12-01T18:25:03.964Z,102047.02
2017-12-01T18:27:30.161Z,102048.77
2017-12-01T18:29:56.343Z,102048.75
2017-12-01T18:32:22.590Z,102048.30
2017-12-01T18:34:48.830Z,102048.32
2017-12-01T18:37:15.200Z,102050.05
2017-12-01T18:39:41.568Z,102053.55
2017-12-01T18:42:07.845Z,102057.52
2017-12-01T18:44:34.103Z,102057.56
2017-12-01T18:47:00.473Z,102054.90
2017-12-01T18:49:26.717Z,102071.52
2017-12-01T18:51:52.956Z,102076.34
2017-12-01T18:54:19.346Z,102077.66
2017-12-01T18:56:45.823Z,102084.67
2017-12-01T18:59:12.046Z,102084.66
2017-12-01T19:01:38.432Z,102086.41
2017-12-01T19:04:04.678Z,102086.41
2017-12-01T19:06:31.017Z,102092.55
2017-12-01T19:08:57.266Z,102091.25
2017-12-01T19:11:23.461Z,102106.56
2017-12-01T19:13:49.645Z,102111.81
2017-12-01T19:16:15.896Z,102113.55
2017-12-01T19:18:42.114Z,102118.34
2017-12-01T19:21:08.353Z,102118.35
2017-12-01T19:23:34.594Z,102127.09
2017-12-01T19:26:00.851Z,102128.41
2017-12-01T19:28:27.039Z,102130.14
2017-12-01T19:30:53.272Z,102126.20
2017-12-01T19:33:19.481Z,102132.33
2017-12-01T19:35:45.663Z,102128.84
2017-12-01T19:38:11.902Z,102134.09
2017-12-01T19:40:38.093Z,102146.77
2017-12-01T19:43:04.510Z,102143.72
2017-12-01T19:45:30.843Z,102137.20
2017-12-01T19:47:57.073Z,102146.80
2017-12-01T19:50:23.274Z,102151.20
2017-12-01T19:52:49.591Z,102149.00
2017-12-01T19:55:15.791Z,102156.45
2017-12-01T19:57:42.224Z,102159.52
2017-12-01T20:00:08.560Z,102163.45
2017-12-01T20:02:34.774Z,102166.06
2017-12-01T20:05:00.965Z,102160.38
2017-12-01T20:07:27.216Z,102159.54
2017-12-01T20:09:53.416Z,102170.88
2017-12-01T20:12:19.623Z,102169.58
2017-12-01T20:14:45.881Z,102168.70
2017-12-01T20:17:12.073Z,102170.00
2017-12-01T20:19:38.496Z,102167.84
2017-12-01T20:22:04.730Z,102177.00
2017-12-01T20:24:31.164Z,102174.39
2017-12-01T20:26:57.598Z,102166.97
2017-12-01T20:29:23.938Z,102174.80
2017-12-01T20:31:50.145Z,102180.53
2017-12-01T20:34:16.395Z,102173.95
2017-12-01T20:36:42.612Z,102177.45
2017-12-01T20:39:08.841Z,102179.22
2017-12-01T20:41:35.027Z,102184.91
2017-12-01T20:44:01.589Z,102182.70
2017-12-01T20:46:27.781Z,102181.84
2017-12-01T20:48:53.986Z,102189.25
2017-12-01T20:51:20.238Z,102184.89
2017-12-01T20:53:46.439Z,102183.55
2017-12-01T20:56:12.641Z,102187.07
2017-12-01T20:58:39.064Z,102182.69
2017-12-01T21:01:05.259Z,102179.66
2017-12-01T21:03:31.454Z,102181.81
2017-12-01T21:05:57.794Z,102185.78
2017-12-01T21:08:24.277Z,102183.56
2017-12-01T21:10:50.469Z,102190.99
2017-12-01T21:13:17.054Z,102191.02
2017-12-01T21:15:43.255Z,102201.07
2017-12-01T21:18:09.467Z,102191.92
2017-12-01T21:20:35.784Z,102190.59
2017-12-01T21:23:01.972Z,102196.27
2017-12-01T21:25:28.181Z,102198.48
2017-12-01T21:27:54.522Z,102200.20
2017-12-01T21:30:20.964Z,102198.48
2017-12-01T21:32:47.177Z,102202.84
2017-12-01T21:35:13.488Z,102206.32
2017-12-01T21:37:39.827Z,102205.02
2017-12-01T21:40:06.065Z,102214.62
2017-12-01T21:45:04.190Z,102211.55
2017-12-01T21:47:30.657Z,102212.42
2017-12-01T21:49:57.208Z,102212.00
2017-12-01T21:52:23.397Z,102213.73
2017-12-01T21:54:49.597Z,102222.08
2017-12-01T21:57:16.127Z,102226.02
2017-12-01T21:59:42.298Z,102226.45
2017-12-01T22:02:08.489Z,102226.91
2017-12-01T22:04:34.836Z,102224.70
2017-12-01T22:07:01.060Z,102230.83
2017-12-01T22:09:27.261Z,102231.27
2017-12-01T22:11:53.587Z,102237.83
2017-12-01T22:14:19.814Z,102238.26
2017-12-01T22:16:46.041Z,102239.14
2017-12-01T22:19:12.274Z,102243.95
2017-12-01T22:21:38.516Z,102244.41
2017-12-01T22:24:04.707Z,102247.91
2017-12-01T22:26:31.016Z,102248.35
2017-12-01T22:28:57.243Z,102250.53
2017-12-01T22:31:23.674Z,102254.90
2017-12-01T22:33:50.004Z,102258.85
2017-12-01T22:36:16.210Z,102260.14
2017-12-01T22:38:42.405Z,102256.66
2017-12-01T22:41:08.998Z,102255.78
2017-12-01T22:43:35.295Z,102261.92
2017-12-01T22:46:01.488Z,102266.29
2017-12-01T22:48:28.040Z,102259.73
2017-12-01T22:50:54.224Z,102263.22
2017-12-01T22:53:20.449Z,102257.09
2017-12-01T22:55:46.684Z,102262.77
2017-12-01T22:58:13.112Z,102264.09
2017-12-01T23:00:39.297Z,102263.64
2017-12-01T23:03:05.538Z,102268.47
2017-12-01T23:05:31.717Z,102267.14
2017-12-01T23:07:57.908Z,102266.73
2017-12-01T23:10:24.472Z,102271.97
2017-12-01T23:12:50.694Z,102272.83
2017-12-01T23:15:16.873Z,102268.89
2017-12-01T23:17:43.320Z,102275.05
2017-12-01T23:20:09.500Z,102276.37
2017-12-01T23:22:36.133Z,102274.61
2017-12-01T23:25:02.452Z,102275.05
2017-12-01T23:27:28.630Z,102278.97
2017-12-01T23:29:55.044Z,102284.69
2017-12-01T23:32:21.290Z,102290.80
2017-12-01T23:34:47.474Z,102292.09
2017-12-01T23:37:13.655Z,102290.35
2017-12-01T23:39:40.114Z,102289.05
2017-12-01T23:42:06.319Z,102292.53
2017-12-01T23:44:32.522Z,102290.35
2017-12-01T23:46:58.832Z,102299.12
2017-12-01T23:49:25.003Z,102297.80
2017-12-01T23:51:51.191Z,102298.67
2017-12-01T23:54:17.660Z,102298.23
2017-12-01T23:56:43.878Z,102297.34
2017-12-01T23:59:10.399Z,102292.55
